Time;durP1;ratioP1;P1;durP2;ratioP2;P2;SDS_P1;SDS_P2;PMS_P1;PMS_P2;Temp;Humidity;BMP_temperature;BMP_pressure;BME280_temperature;BME280_humidity;BME280_pressure;Samples;Min_cycle;Max_cycle;Signal;HPM_P1;HPM_P2
2022/01/20 00:01:10;;;;;;;5.20;4.00;;;5.40;99.90;;;;;;5014272;28;20973;-61
2022/01/20 00:03:38;;;;;;;5.47;4.90;;;5.60;99.90;;;;;;5014299;28;20399;-62
2022/01/20 00:27:53;;;;;;;4.47;4.07;;;5.60;99.90;;;;;;5033643;28;20508;-61
2022/01/20 00:30:45;;;;;;;5.20;4.03;;;5.50;99.90;;;;;;5033741;28;20399;-60
2022/01/20 00:38:16;;;;;;;3.93;3.60;;;5.70;99.90;;;;;;5034473;28;20222;-61
2022/01/20 00:40:41;;;;;;;4.50;4.10;;;5.80;99.90;;;;;;5033274;28;20946;-61
2022/01/20 00:43:07;;;;;;;4.57;4.10;;;5.80;99.90;;;;;;5033267;28;20463;-61
2022/01/20 00:45:33;;;;;;;4.87;4.43;;;5.50;99.90;;;;;;5033183;28;20209;-61
2022/01/20 00:47:58;;;;;;;4.50;3.97;;;5.50;99.90;;;;;;5032662;28;20219;-61
2022/01/20 00:50:24;;;;;;;3.73;3.43;;;5.60;99.90;;;;;;5033083;28;20215;-61
2022/01/20 00:52:51;;;;;;;4.57;4.03;;;5.30;99.90;;;;;;5033323;28;20202;-61
2022/01/20 00:55:17;;;;;;;3.80;3.50;;;5.40;99.90;;;;;;5032732;28;20934;-60
2022/01/20 00:57:43;;;;;;;4.20;3.80;;;5.40;99.90;;;;;;5032875;28;20902;-59
2022/01/20 01:00:10;;;;;;;4.53;3.53;;;5.60;99.90;;;;;;5032881;28;20515;-60
2022/01/20 01:02:36;;;;;;;3.60;3.30;;;5.60;99.90;;;;;;5032888;28;20182;-59
2022/01/20 01:05:03;;;;;;;4.90;4.10;;;5.80;99.90;;;;;;5033157;28;20402;-61
2022/01/20 01:07:49;;;;;;;4.40;3.50;;;5.90;99.90;;;;;;5032766;28;20226;-60
2022/01/20 01:10:22;;;;;;;4.50;3.67;;;5.80;99.90;;;;;;5033011;28;20391;-61
2022/01/20 01:15:49;;;;;;;4.00;3.60;;;5.70;99.90;;;;;;5033049;28;20414;-60
2022/01/20 01:23:45;;;;;;;3.50;3.23;;;5.50;99.90;;;;;;5036881;28;20403;-61
2022/01/20 01:26:14;;;;;;;3.43;3.13;;;5.30;99.90;;;;;;5036762;28;20895;-61
2022/01/20 01:28:41;;;;;;;3.60;3.30;;;5.40;99.90;;;;;;5036583;28;21001;-60
2022/01/20 01:31:32;;;;;;;3.53;3.10;;;5.30;99.90;;;;;;5036751;28;20410;-61
2022/01/20 01:34:02;;;;;;;4.30;3.70;;;5.40;99.90;;;;;;5036702;28;20390;-61
2022/01/20 01:36:33;;;;;;;3.10;2.80;;;5.60;99.90;;;;;;5034839;28;20390;-60
2022/01/20 01:38:58;;;;;;;3.83;3.43;;;5.50;99.90;;;;;;5017074;28;20427;-59
2022/01/20 01:41:32;;;;;;;4.17;3.00;;;5.70;99.90;;;;;;5016569;28;20581;-61
2022/01/20 01:44:02;;;;;;;3.00;2.70;;;5.90;99.90;;;;;;5016815;28;20168;-61
2022/01/20 01:46:28;;;;;;;3.63;3.33;;;5.80;99.90;;;;;;5017112;28;20423;-62
2022/01/20 01:48:53;;;;;;;2.60;2.40;;;5.70;99.90;;;;;;5054475;23;20552;-57
2022/01/20 01:51:19;;;;;;;3.33;3.03;;;5.40;99.90;;;;;;5036714;28;20171;-57
2022/01/20 01:53:44;;;;;;;3.20;2.77;;;5.40;99.90;;;;;;5036976;28;20532;-57
2022/01/20 01:56:10;;;;;;;3.50;3.30;;;5.40;99.90;;;;;;5036257;28;20585;-56
2022/01/20 01:58:36;;;;;;;3.63;2.50;;;5.20;99.90;;;;;;5036374;28;20592;-56
2022/01/20 02:01:02;;;;;;;2.97;2.37;;;5.40;99.90;;;;;;5036330;28;20488;-54
2022/01/20 02:03:30;;;;;;;2.77;2.57;;;5.40;99.90;;;;;;5036002;28;20213;-58
2022/01/20 02:06:32;;;;;;;3.17;2.87;;;5.40;99.90;;;;;;5036406;28;20410;-57
2022/01/20 02:19:56;;;;;;;2.97;2.77;;;5.20;99.90;;;;;;5005484;28;20462;-56
2022/01/20 02:22:22;;;;;;;2.80;2.60;;;5.30;99.90;;;;;;4996830;28;20461;-55
2022/01/20 02:24:48;;;;;;;3.43;2.87;;;5.30;99.90;;;;;;4996577;28;20868;-58
2022/01/20 02:27:14;;;;;;;3.20;2.50;;;5.30;99.90;;;;;;4996377;28;20404;-57
2022/01/20 02:29:40;;;;;;;2.83;2.17;;;5.20;99.90;;;;;;4995722;28;20643;-58
2022/01/20 02:32:07;;;;;;;2.40;2.20;;;5.20;99.90;;;;;;4996645;28;20350;-58
2022/01/20 02:34:32;;;;;;;2.40;2.20;;;5.30;99.90;;;;;;4995993;28;20416;-56
2022/01/20 02:37:01;;;;;;;2.70;2.50;;;5.30;99.90;;;;;;4996196;28;20403;-56
2022/01/20 02:40:29;;;;;;;1.90;1.80;;;5.20;99.90;;;;;;4996186;28;20568;-53
2022/01/20 02:45:03;;;;;;;3.83;2.60;;;5.10;99.90;;;;;;4996117;28;20382;-57
2022/01/20 02:47:31;;;;;;;3.13;2.83;;;5.10;99.90;;;;;;5000440;28;20823;-57
2022/01/20 02:49:57;;;;;;;3.03;2.20;;;5.20;99.90;;;;;;5035220;28;20383;-54
2022/01/20 02:52:24;;;;;;;2.53;2.33;;;5.30;99.90;;;;;;5035519;28;20455;-54
2022/01/20 02:54:50;;;;;;;2.00;1.80;;;5.30;99.90;;;;;;5035327;28;20407;-58
2022/01/20 02:57:16;;;;;;;3.57;2.33;;;5.00;99.90;;;;;;5035209;28;20460;-57
2022/01/20 02:59:42;;;;;;;3.13;2.20;;;5.10;99.90;;;;;;5035050;28;20445;-57
2022/01/20 03:02:09;;;;;;;2.23;2.10;;;5.10;99.90;;;;;;5035445;28;20406;-55
2022/01/20 03:04:36;;;;;;;2.10;1.90;;;5.30;99.90;;;;;;5034795;28;20177;-55
2022/01/20 03:07:02;;;;;;;2.27;2.07;;;5.50;99.90;;;;;;5035591;28;20406;-56
2022/01/20 03:09:27;;;;;;;2.50;1.80;;;5.40;99.90;;;;;;5036375;28;20915;-57
2022/01/20 03:11:53;;;;;;;2.10;1.90;;;5.40;99.90;;;;;;5037049;28;20406;-55
2022/01/20 03:14:19;;;;;;;1.70;1.60;;;5.50;99.90;;;;;;5035234;28;20163;-56
2022/01/20 03:16:45;;;;;;;1.60;1.50;;;5.40;99.90;;;;;;5035425;28;20210;-57
2022/01/20 03:19:15;;;;;;;2.07;1.97;;;5.50;99.90;;;;;;5034762;28;20258;-58
2022/01/20 03:21:41;;;;;;;2.50;1.73;;;5.60;99.90;;;;;;5034691;28;20445;-54
2022/01/20 03:24:08;;;;;;;1.53;1.43;;;5.60;99.90;;;;;;5034922;28;20406;-55
2022/01/20 03:26:35;;;;;;;1.80;1.63;;;5.70;99.90;;;;;;5034456;28;20405;-51
2022/01/20 03:29:02;;;;;;;1.73;1.63;;;5.60;99.90;;;;;;5034511;28;20463;-52
2022/01/20 03:31:28;;;;;;;2.40;1.50;;;5.60;99.90;;;;;;5034560;28;20406;-55
2022/01/20 03:33:53;;;;;;;1.70;1.60;;;5.50;99.90;;;;;;5034374;28;20924;-54
2022/01/20 03:36:20;;;;;;;1.60;1.50;;;5.60;99.90;;;;;;5015554;28;20250;-54
2022/01/20 03:38:46;;;;;;;1.80;1.70;;;5.60;99.90;;;;;;4996964;28;20188;-56
2022/01/20 03:41:11;;;;;;;1.77;1.50;;;5.60;99.90;;;;;;5014247;28;20478;-56
2022/01/20 03:43:37;;;;;;;3.10;1.50;;;5.60;99.90;;;;;;5014878;28;20156;-55
2022/01/20 03:46:06;;;;;;;2.47;1.50;;;5.50;99.90;;;;;;5014522;28;20173;-57
2022/01/20 03:48:38;;;;;;;2.13;1.93;;;5.50;99.90;;;;;;5025186;28;20206;-57
2022/01/20 03:51:04;;;;;;;1.90;1.80;;;5.40;99.90;;;;;;5034218;28;20391;-56
2022/01/20 03:53:38;;;;;;;2.17;1.97;;;5.60;99.90;;;;;;5034099;28;20409;-56
2022/01/20 03:56:05;;;;;;;2.10;2.00;;;5.60;99.90;;;;;;5033939;28;20925;-56
2022/01/20 03:58:31;;;;;;;2.07;1.77;;;5.70;99.90;;;;;;5034111;28;20417;-57
2022/01/20 04:00:57;;;;;;;1.60;1.50;;;5.80;99.90;;;;;;5034476;28;21011;-57
2022/01/20 04:03:22;;;;;;;2.60;2.00;;;5.70;99.90;;;;;;5033736;28;20163;-57
2022/01/20 04:05:56;;;;;;;2.63;2.07;;;5.50;99.90;;;;;;5033980;28;20399;-56
2022/01/20 04:08:31;;;;;;;2.30;2.10;;;5.50;99.90;;;;;;5034078;28;20210;-58
2022/01/20 04:11:00;;;;;;;2.20;2.00;;;5.60;99.90;;;;;;5033667;28;20385;-58
2022/01/20 04:13:31;;;;;;;3.07;2.20;;;5.50;99.90;;;;;;5033976;28;20429;-58
2022/01/20 04:16:00;;;;;;;3.53;2.63;;;5.50;99.90;;;;;;5034037;28;20853;-55
2022/01/20 04:18:27;;;;;;;2.30;2.10;;;5.60;99.90;;;;;;5033312;28;20436;-55
2022/01/20 04:20:53;;;;;;;2.67;2.43;;;5.50;99.90;;;;;;5033519;28;20943;-56
2022/01/20 04:23:19;;;;;;;2.80;2.60;;;5.50;99.90;;;;;;5033615;28;20402;-58
2022/01/20 04:25:45;;;;;;;3.67;2.70;;;5.50;99.90;;;;;;5033795;28;20475;-54
2022/01/20 04:28:11;;;;;;;3.20;2.70;;;5.60;99.90;;;;;;5033330;28;20276;-58
2022/01/20 04:30:36;;;;;;;3.70;3.40;;;5.70;99.90;;;;;;5033444;28;20402;-56
2022/01/20 04:33:02;;;;;;;3.10;2.90;;;5.70;99.90;;;;;;5033181;28;20225;-58
2022/01/20 04:35:28;;;;;;;2.47;2.27;;;5.80;99.90;;;;;;5033690;28;20406;-58
2022/01/20 04:37:56;;;;;;;3.10;2.27;;;5.70;99.90;;;;;;5033272;28;20461;-55
2022/01/20 04:40:22;;;;;;;2.60;2.40;;;5.70;99.90;;;;;;5033809;28;20199;-58
2022/01/20 04:42:49;;;;;;;2.53;2.33;;;5.60;99.90;;;;;;5033268;28;20496;-57
2022/01/20 04:45:22;;;;;;;3.10;2.73;;;5.60;99.90;;;;;;5033333;28;20213;-53
2022/01/20 04:58:47;;;;;;;3.13;2.83;;;5.90;99.90;;;;;;5033424;28;20436;-55
2022/01/20 05:01:12;;;;;;;3.10;2.80;;;5.70;99.90;;;;;;5033239;28;20468;-58
2022/01/20 05:03:38;;;;;;;2.83;2.60;;;5.80;99.90;;;;;;5033047;28;20178;-55
2022/01/20 05:06:03;;;;;;;4.13;3.13;;;5.70;99.90;;;;;;5033567;28;20168;-54
2022/01/20 05:08:30;;;;;;;3.23;3.00;;;5.70;99.90;;;;;;5033178;28;20195;-56
2022/01/20 05:11:00;;;;;;;3.67;3.37;;;5.60;99.90;;;;;;5020304;28;20184;-56
2022/01/20 05:13:33;;;;;;;3.23;3.00;;;5.50;99.90;;;;;;5005967;28;20505;-57
2022/01/20 05:15:58;;;;;;;4.03;3.40;;;5.50;99.90;;;;;;5013765;28;20390;-54
2022/01/20 05:18:24;;;;;;;2.90;2.70;;;5.50;99.90;;;;;;5022981;28;20540;-56
2022/01/20 05:20:50;;;;;;;2.90;2.63;;;5.30;99.90;;;;;;5033088;28;20201;-57
2022/01/20 05:23:15;;;;;;;4.60;3.07;;;5.40;99.90;;;;;;5032958;28;20163;-57
2022/01/20 05:25:41;;;;;;;4.80;3.10;;;5.40;99.90;;;;;;5032656;28;20248;-57
2022/01/20 05:28:07;;;;;;;3.57;2.70;;;5.40;99.90;;;;;;5032924;28;20187;-56
2022/01/20 05:30:33;;;;;;;3.00;2.70;;;5.40;99.90;;;;;;5015446;28;20187;-57
2022/01/20 05:33:00;;;;;;;3.57;3.27;;;5.50;99.90;;;;;;5013259;28;20899;-57
2022/01/20 05:35:27;;;;;;;3.70;2.80;;;5.50;99.90;;;;;;5013365;28;20231;-57
2022/01/20 05:37:52;;;;;;;3.83;3.23;;;5.60;99.90;;;;;;5013489;28;20466;-55
2022/01/20 05:40:18;;;;;;;4.90;3.60;;;5.50;99.90;;;;;;5013212;28;20483;-54
2022/01/20 05:42:44;;;;;;;3.37;3.07;;;5.40;99.90;;;;;;5013218;28;20164;-55
2022/01/20 05:45:12;;;;;;;2.63;2.43;;;5.30;99.90;;;;;;5012983;28;20168;-58
2022/01/20 05:47:43;;;;;;;2.97;2.77;;;5.30;99.90;;;;;;5016507;28;20217;-50
2022/01/20 05:50:15;;;;;;;3.40;3.10;;;5.30;99.90;;;;;;5032366;28;20390;-55
2022/01/20 05:52:43;;;;;;;4.80;3.97;;;5.20;99.90;;;;;;5033331;28;20421;-58
2022/01/20 05:55:11;;;;;;;3.80;3.40;;;5.20;99.90;;;;;;5032699;28;20755;-58
2022/01/20 05:57:37;;;;;;;3.40;3.10;;;5.10;99.90;;;;;;5032471;28;20434;-56
2022/01/20 06:00:09;;;;;;;4.40;3.30;;;5.20;99.90;;;;;;5032318;28;20535;-57
2022/01/20 06:03:35;;;;;;;3.20;3.00;;;5.20;99.90;;;;;;5032314;28;20405;-58
2022/01/20 06:05:20;;;;;;;5.00;4.27;;;5.10;99.90;;;;;;5033679;28;20421;-57
2022/01/20 06:07:46;;;;;;;7.33;4.80;;;5.00;99.90;;;;;;5036098;28;20417;-54
2022/01/20 06:10:11;;;;;;;4.90;4.33;;;5.10;99.90;;;;;;5036447;28;20229;-57
2022/01/20 06:12:37;;;;;;;5.30;3.53;;;5.30;99.90;;;;;;5035983;28;20586;-58
2022/01/20 06:15:03;;;;;;;8.13;3.77;;;5.40;99.90;;;;;;5036129;28;20225;-57
2022/01/20 06:17:29;;;;;;;3.57;3.23;;;5.30;99.90;;;;;;5036158;28;20187;-56
2022/01/20 06:19:55;;;;;;;4.20;3.10;;;5.30;99.90;;;;;;5035766;28;20449;-55
2022/01/20 06:22:21;;;;;;;3.97;3.67;;;5.30;99.90;;;;;;5036031;28;20437;-57
2022/01/20 06:24:46;;;;;;;8.50;3.77;;;5.20;99.90;;;;;;5037176;28;20299;-57
2022/01/20 06:27:12;;;;;;;4.20;3.80;;;5.10;99.90;;;;;;5036792;28;20317;-57
2022/01/20 06:29:37;;;;;;;3.37;2.63;;;5.10;99.90;;;;;;5036361;28;20171;-58
2022/01/20 06:32:03;;;;;;;4.87;3.30;;;5.30;99.90;;;;;;5036350;28;20171;-56
2022/01/20 06:34:29;;;;;;;7.80;3.27;;;5.10;99.90;;;;;;5035469;28;20169;-56
2022/01/20 06:36:55;;;;;;;4.20;3.73;;;5.10;99.90;;;;;;5035646;28;20394;-58
2022/01/20 06:39:20;;;;;;;5.90;3.80;;;5.10;99.90;;;;;;5035387;28;20190;-57
2022/01/20 06:41:46;;;;;;;4.20;3.40;;;5.20;99.90;;;;;;5035466;28;20544;-56
2022/01/20 06:44:11;;;;;;;4.03;3.20;;;5.10;99.90;;;;;;5035432;28;20199;-56
2022/01/20 06:46:37;;;;;;;3.20;2.80;;;5.20;99.90;;;;;;5035264;28;20225;-55
2022/01/20 06:49:03;;;;;;;42.53;30.87;;;5.20;99.90;;;;;;5034808;28;20576;-54
2022/01/20 06:51:28;;;;;;;4.20;3.30;;;5.20;99.90;;;;;;5017542;28;20175;-57
2022/01/20 06:53:54;;;;;;;3.03;2.63;;;5.00;99.90;;;;;;5036234;28;20448;-57
2022/01/20 06:56:20;;;;;;;4.10;2.80;;;5.00;99.90;;;;;;5035073;28;20205;-56
2022/01/20 06:58:45;;;;;;;3.97;2.70;;;5.10;99.90;;;;;;5035379;28;20298;-57
2022/01/20 07:01:11;;;;;;;5.30;3.60;;;5.20;99.90;;;;;;5035526;28;20548;-53
2022/01/20 07:03:36;;;;;;;3.87;3.20;;;5.30;99.90;;;;;;5034592;28;20186;-57
2022/01/20 07:06:02;;;;;;;4.67;3.00;;;5.30;99.90;;;;;;5035295;28;20163;-54
2022/01/20 07:08:28;;;;;;;3.43;2.47;;;5.10;99.90;;;;;;5035078;28;20241;-56
2022/01/20 07:10:53;;;;;;;2.97;2.70;;;5.10;99.90;;;;;;5034961;28;20188;-56
2022/01/20 07:13:19;;;;;;;2.97;2.60;;;5.20;99.90;;;;;;5034845;28;20171;-56
2022/01/20 07:15:45;;;;;;;3.67;3.03;;;5.00;99.90;;;;;;5034638;28;20172;-56
2022/01/20 07:18:10;;;;;;;2.90;2.60;;;5.00;99.90;;;;;;5034876;28;20222;-57
2022/01/20 07:20:36;;;;;;;3.60;3.17;;;4.90;99.90;;;;;;5034712;28;20203;-56
2022/01/20 07:23:01;;;;;;;3.70;2.57;;;5.00;99.90;;;;;;5034597;28;20160;-53
2022/01/20 07:25:27;;;;;;;2.40;2.20;;;4.80;99.90;;;;;;5034572;28;20249;-58
2022/01/20 07:27:52;;;;;;;4.13;3.10;;;5.00;99.90;;;;;;5034465;28;20198;-58
2022/01/20 07:30:18;;;;;;;6.90;3.00;;;4.80;99.90;;;;;;5034549;28;20175;-57
2022/01/20 07:32:44;;;;;;;3.03;2.80;;;4.60;99.90;;;;;;5014703;28;20250;-54
2022/01/20 07:35:09;;;;;;;2.90;2.60;;;4.60;99.90;;;;;;5014799;28;20222;-56
2022/01/20 07:37:35;;;;;;;3.27;2.50;;;4.60;99.90;;;;;;5014701;28;20188;-58
2022/01/20 07:40:01;;;;;;;3.20;2.50;;;4.60;99.90;;;;;;5014448;28;20203;-56
2022/01/20 07:42:27;;;;;;;4.67;3.27;;;4.70;99.90;;;;;;5014383;28;20775;-58
2022/01/20 07:44:52;;;;;;;3.67;3.27;;;4.70;99.90;;;;;;5014891;28;20165;-59
2022/01/20 07:47:18;;;;;;;5.60;3.23;;;4.70;99.90;;;;;;5015382;28;20200;-56
2022/01/20 07:49:43;;;;;;;3.80;3.13;;;4.70;99.90;;;;;;5057725;22;20211;-55
2022/01/20 07:52:10;;;;;;;6.87;3.80;;;4.50;99.90;;;;;;5033265;28;20584;-56
2022/01/20 07:54:36;;;;;;;3.77;3.07;;;4.60;99.90;;;;;;5034617;28;20171;-55
2022/01/20 07:57:04;;;;;;;4.47;3.40;;;4.70;99.90;;;;;;5034107;28;20390;-57
2022/01/20 07:59:30;;;;;;;8.03;3.80;;;4.70;99.90;;;;;;5033799;28;20422;-58
2022/01/20 08:01:55;;;;;;;3.60;2.93;;;4.70;99.90;;;;;;5034500;28;20410;-57
2022/01/20 08:04:21;;;;;;;3.77;2.83;;;4.80;99.90;;;;;;5014697;28;20641;-55
2022/01/20 08:06:47;;;;;;;7.20;3.47;;;4.80;99.90;;;;;;4998266;28;20176;-57
2022/01/20 08:09:13;;;;;;;5.07;3.57;;;4.70;99.90;;;;;;4995049;28;20268;-53
2022/01/20 08:11:39;;;;;;;3.47;2.97;;;4.60;99.90;;;;;;4994857;28;20164;-58
2022/01/20 08:14:04;;;;;;;4.10;3.33;;;4.60;99.90;;;;;;4994557;28;20411;-54
2022/01/20 08:16:30;;;;;;;5.50;3.20;;;4.60;99.90;;;;;;4994893;28;20200;-57
2022/01/20 08:18:55;;;;;;;6.03;4.00;;;4.70;99.90;;;;;;5011527;28;20269;-58
2022/01/20 08:21:21;;;;;;;5.47;2.97;;;4.70;99.90;;;;;;5033925;28;20198;-56
2022/01/20 08:23:46;;;;;;;6.20;3.70;;;4.90;99.90;;;;;;5034065;28;20172;-57
2022/01/20 08:26:12;;;;;;;11.73;3.50;;;4.90;99.90;;;;;;5033881;28;20164;-57
2022/01/20 08:28:38;;;;;;;11.27;4.30;;;5.20;99.90;;;;;;5033157;28;20220;-57
2022/01/20 08:31:03;;;;;;;7.30;3.60;;;5.20;99.90;;;;;;5033689;28;20246;-52
2022/01/20 08:33:29;;;;;;;8.00;4.57;;;5.20;99.90;;;;;;5033342;28;20636;-58
2022/01/20 08:35:55;;;;;;;10.30;3.93;;;5.30;99.90;;;;;;5033143;28;20636;-55
2022/01/20 08:38:20;;;;;;;6.50;4.50;;;5.20;99.90;;;;;;5033115;28;20683;-56
2022/01/20 08:40:47;;;;;;;4.23;3.20;;;5.10;99.90;;;;;;5033617;28;20266;-57
2022/01/20 08:43:13;;;;;;;6.60;3.83;;;5.20;99.90;;;;;;5033236;28;20266;-56
2022/01/20 08:45:40;;;;;;;7.63;4.30;;;5.10;99.90;;;;;;5033299;28;20430;-59
2022/01/20 08:48:08;;;;;;;6.97;3.90;;;5.00;99.90;;;;;;5032618;28;20674;-58
2022/01/20 08:50:34;;;;;;;5.20;3.70;;;5.20;99.90;;;;;;5034089;28;20394;-55
2022/01/20 08:53:00;;;;;;;7.97;3.70;;;5.10;99.90;;;;;;5015713;28;20410;-57
2022/01/20 08:55:26;;;;;;;6.53;3.80;;;5.30;99.90;;;;;;5033643;28;20918;-54
2022/01/20 08:57:56;;;;;;;5.20;3.70;;;5.30;99.90;;;;;;5032828;28;20163;-57
2022/01/20 09:00:25;;;;;;;12.73;4.50;;;5.40;99.90;;;;;;5033293;28;20441;-59
2022/01/20 09:02:51;;;;;;;9.53;4.37;;;5.30;99.90;;;;;;5033299;28;20417;-58
2022/01/20 09:05:16;;;;;;;5.07;4.03;;;5.40;99.90;;;;;;5032897;28;20410;-59
2022/01/20 09:07:42;;;;;;;7.37;4.37;;;5.50;99.90;;;;;;5033149;28;20210;-57
2022/01/20 09:10:08;;;;;;;9.47;3.80;;;5.50;99.90;;;;;;5033429;28;20202;-55
2022/01/20 09:15:28;;;;;;;7.97;4.20;;;5.50;99.90;;;;;;5033724;28;20402;-59
2022/01/20 09:17:59;;;;;;;12.23;4.97;;;5.60;99.90;;;;;;5033083;28;20796;-59
2022/01/20 09:20:26;;;;;;;8.80;4.10;;;5.70;99.90;;;;;;5032942;28;20433;-55
2022/01/20 09:22:52;;;;;;;6.87;4.20;;;5.70;99.90;;;;;;5034423;28;20406;-58
2022/01/20 09:25:19;;;;;;;11.63;4.90;;;5.90;99.90;;;;;;5034078;28;20405;-58
2022/01/20 09:27:44;;;;;;;9.10;4.13;;;6.00;99.90;;;;;;5033307;28;20509;-59
2022/01/20 09:30:17;;;;;;;12.87;4.10;;;6.10;99.90;;;;;;5026160;28;20478;-59
2022/01/20 09:32:42;;;;;;;6.17;3.37;;;6.00;99.90;;;;;;5014061;28;20157;-59
2022/01/20 09:35:08;;;;;;;9.30;3.93;;;6.10;99.90;;;;;;5013342;28;20757;-59
2022/01/20 09:37:36;;;;;;;6.30;3.87;;;6.10;99.90;;;;;;5013356;28;20204;-58
2022/01/20 09:40:02;;;;;;;14.17;5.30;;;6.20;99.90;;;;;;5015310;28;20198;-59
2022/01/20 09:42:27;;;;;;;7.07;4.47;;;6.60;99.90;;;;;;5017084;28;20437;-58
2022/01/20 09:44:54;;;;;;;5.20;3.73;;;6.50;99.90;;;;;;5015767;28;20442;-56
2022/01/20 09:47:20;;;;;;;9.43;3.97;;;6.60;99.90;;;;;;5017360;28;20156;-58
2022/01/20 09:49:45;;;;;;;8.70;4.20;;;6.60;99.90;;;;;;5032390;28;20441;-58
2022/01/20 09:52:11;;;;;;;8.57;4.73;;;6.30;99.90;;;;;;5018891;28;20178;-58
2022/01/20 09:54:38;;;;;;;8.80;3.93;;;6.30;99.90;;;;;;5036951;28;20172;-56
2022/01/20 09:57:04;;;;;;;7.17;3.90;;;6.40;99.90;;;;;;5036932;28;20571;-59
2022/01/20 09:59:31;;;;;;;8.30;3.87;;;6.40;99.90;;;;;;5037097;28;20541;-59
2022/01/20 10:01:58;;;;;;;6.97;3.90;;;6.40;99.90;;;;;;5037003;28;20454;-57
2022/01/20 10:04:30;;;;;;;6.20;4.33;;;6.30;99.90;;;;;;5036973;28;20905;-58
2022/01/20 10:06:57;;;;;;;7.00;3.77;;;6.40;99.90;;;;;;5036710;28;20477;-58
2022/01/20 10:09:28;;;;;;;6.00;4.63;;;6.60;99.90;;;;;;5036152;28;20425;-59
2022/01/20 10:11:54;;;;;;;7.93;4.03;;;6.50;99.90;;;;;;5036431;28;20410;-58
2022/01/20 10:14:19;;;;;;;4.83;3.63;;;6.40;99.90;;;;;;5018510;28;20799;-59
2022/01/20 10:16:45;;;;;;;10.57;4.30;;;6.30;99.90;;;;;;5036677;28;20402;-58
2022/01/20 10:19:23;;;;;;;7.83;3.40;;;6.20;99.90;;;;;;5035763;28;20293;-59
2022/01/20 10:21:49;;;;;;;10.13;3.77;;;6.20;99.90;;;;;;5036217;28;20245;-59
2022/01/20 10:24:16;;;;;;;6.80;5.10;;;6.20;99.90;;;;;;5036246;28;20407;-58
2022/01/20 10:26:42;;;;;;;16.53;7.83;;;6.30;99.90;;;;;;5036132;28;20250;-56
2022/01/20 10:29:08;;;;;;;11.23;4.80;;;6.30;99.90;;;;;;5035862;28;20474;-59
2022/01/20 10:31:44;;;;;;;6.87;3.53;;;6.30;99.90;;;;;;5035983;28;20495;-59
2022/01/20 10:34:18;;;;;;;8.67;4.40;;;6.30;99.90;;;;;;5032790;28;20418;-58
2022/01/20 10:36:54;;;;;;;5.30;4.07;;;6.40;99.90;;;;;;5008328;28;20424;-59
2022/01/20 10:39:37;;;;;;;6.63;3.97;;;6.60;99.90;;;;;;5013378;28;20435;-59
2022/01/20 10:42:08;;;;;;;8.20;4.00;;;6.60;99.90;;;;;;5015880;28;20407;-59
2022/01/20 10:44:48;;;;;;;7.07;4.00;;;6.60;99.90;;;;;;5016683;28;20431;-59
2022/01/20 10:47:21;;;;;;;7.10;3.77;;;6.30;99.90;;;;;;5015977;28;20399;-59
2022/01/20 10:49:48;;;;;;;6.40;3.80;;;6.20;99.90;;;;;;5031040;28;20529;-58
2022/01/20 10:52:19;;;;;;;5.33;3.83;;;6.20;99.90;;;;;;5035100;28;20415;-58
2022/01/20 10:54:54;;;;;;;6.30;3.70;;;6.20;99.90;;;;;;5035513;28;20744;-58
2022/01/20 10:57:31;;;;;;;6.83;4.50;;;6.10;99.90;;;;;;5035618;28;20474;-58
2022/01/20 10:59:59;;;;;;;7.90;5.30;;;6.00;99.90;;;;;;5035248;28;20464;-59
2022/01/20 11:02:29;;;;;;;5.30;4.50;;;6.10;99.90;;;;;;5035676;28;20429;-58
2022/01/20 11:04:58;;;;;;;6.70;4.20;;;6.20;99.90;;;;;;5035596;28;20429;-58
2022/01/20 11:07:25;;;;;;;5.63;3.30;;;6.30;99.90;;;;;;5035444;28;20398;-58
2022/01/20 11:09:59;;;;;;;5.67;4.20;;;6.30;99.90;;;;;;5035258;28;20990;-58
2022/01/20 11:12:25;;;;;;;7.20;4.50;;;6.30;99.90;;;;;;5035449;28;20466;-59
2022/01/20 11:14:54;;;;;;;6.97;4.03;;;6.40;99.90;;;;;;5035490;28;20402;-59
2022/01/20 11:17:28;;;;;;;11.93;4.57;;;6.40;99.90;;;;;;5035355;28;20425;-58
2022/01/20 11:19:57;;;;;;;11.67;4.10;;;6.40;99.90;;;;;;5034945;28;20807;-59
2022/01/20 11:22:23;;;;;;;7.13;5.23;;;6.20;99.90;;;;;;5035281;28;20403;-59
2022/01/20 11:25:06;;;;;;;7.00;3.90;;;6.30;99.90;;;;;;5035034;28;20406;-55
2022/01/20 11:27:39;;;;;;;11.97;5.57;;;6.40;99.90;;;;;;5035177;28;20191;-58
2022/01/20 11:30:26;;;;;;;7.57;4.50;;;6.40;99.90;;;;;;5034940;28;20434;-57
2022/01/20 11:33:13;;;;;;;7.70;4.27;;;6.30;99.90;;;;;;5026384;28;20559;-57
2022/01/20 11:35:54;;;;;;;9.50;4.40;;;6.20;99.90;;;;;;5014842;28;20404;-58
2022/01/20 11:38:22;;;;;;;6.90;4.60;;;6.20;99.90;;;;;;5015189;28;20428;-58
2022/01/20 11:41:00;;;;;;;7.40;4.40;;;6.40;99.90;;;;;;5015032;28;20521;-58
2022/01/20 11:43:36;;;;;;;9.00;4.20;;;6.40;99.90;;;;;;5014910;28;20817;-55
2022/01/20 11:46:14;;;;;;;8.27;4.70;;;6.50;99.90;;;;;;5014721;28;20528;-58
2022/01/20 11:48:53;;;;;;;6.30;4.07;;;6.50;99.90;;;;;;5020844;28;20433;-58
2022/01/20 11:51:19;;;;;;;5.60;3.00;;;6.40;99.90;;;;;;5035098;28;20770;-57
2022/01/20 11:54:26;;;;;;;4.97;3.83;;;6.80;99.90;;;;;;5034888;28;20867;-59
2022/01/20 11:57:03;;;;;;;5.73;3.47;;;7.30;99.90;;;;;;5024444;28;20450;-56
2022/01/20 11:59:40;;;;;;;7.63;3.07;;;7.40;99.90;;;;;;5036055;28;20431;-57
2022/01/20 12:02:06;;;;;;;6.00;3.40;;;7.50;99.90;;;;;;5037137;28;20480;-57
2022/01/20 12:04:37;;;;;;;6.60;4.60;;;7.80;99.90;;;;;;5037139;28;20402;-58
2022/01/20 12:07:04;;;;;;;5.23;3.23;;;7.80;99.90;;;;;;5027999;28;20415;-58
2022/01/20 12:09:36;;;;;;;4.63;2.87;;;7.50;99.90;;;;;;5006199;28;20927;-58
2022/01/20 12:12:03;;;;;;;5.73;2.87;;;7.70;99.90;;;;;;4998361;28;20772;-58
2022/01/20 12:14:35;;;;;;;5.23;2.53;;;8.00;99.90;;;;;;4996389;28;20537;-58
2022/01/20 12:17:14;;;;;;;6.17;3.03;;;7.90;99.90;;;;;;4995491;28;20726;-59
2022/01/20 12:19:40;;;;;;;3.53;2.27;;;7.80;99.90;;;;;;5024096;28;20488;-59
2022/01/20 12:22:06;;;;;;;3.87;2.47;;;7.30;99.90;;;;;;5034413;28;20419;-58
2022/01/20 12:24:34;;;;;;;8.63;5.20;;;6.90;99.90;;;;;;5034033;28;20546;-57
2022/01/20 12:27:00;;;;;;;5.07;3.50;;;6.80;99.90;;;;;;5033835;28;20413;-58
2022/01/20 12:29:37;;;;;;;6.67;3.33;;;6.60;99.90;;;;;;5033952;28;20517;-56
2022/01/20 12:32:11;;;;;;;3.50;2.00;;;6.40;99.90;;;;;;5034247;28;20616;-58
2022/01/20 12:34:36;;;;;;;3.55;1.90;;;5.60;99.90;;;;;;5033204;28;20401;-58
2022/01/20 12:37:02;;;;;;;3.37;2.10;;;5.10;99.90;;;;;;5033981;28;20170;-57
2022/01/20 12:39:30;;;;;;;6.10;2.40;;;4.80;99.90;;;;;;5033794;28;20239;-54
2022/01/20 12:42:01;;;;;;;3.07;1.93;;;4.50;99.90;;;;;;5034971;28;20805;-57
2022/01/20 12:45:03;;;;;;;1.87;1.77;;;4.40;99.90;;;;;;5035198;28;20469;-57
2022/01/20 12:47:30;;;;;;;4.53;2.70;;;4.20;99.90;;;;;;5017296;28;20924;-57
2022/01/20 12:49:58;;;;;;;5.27;2.80;;;4.10;99.90;;;;;;5034201;28;20441;-58
2022/01/20 12:52:24;;;;;;;3.20;2.20;;;4.10;99.90;;;;;;5035908;28;20485;-56
2022/01/20 12:54:50;;;;;;;6.10;2.80;;;4.10;99.90;;;;;;5035533;28;20476;-59
2022/01/20 12:57:17;;;;;;;4.53;2.80;;;4.20;99.90;;;;;;5035676;28;20608;-57
2022/01/20 12:59:44;;;;;;;9.87;2.90;;;4.40;99.90;;;;;;5034878;28;20919;-58
2022/01/20 13:02:13;;;;;;;4.77;3.23;;;4.30;99.90;;;;;;5034394;28;20414;-58
2022/01/20 13:04:40;;;;;;;6.47;3.73;;;4.50;99.90;;;;;;5033007;28;20398;-58
2022/01/20 13:07:09;;;;;;;7.20;3.00;;;4.30;99.90;;;;;;5034155;28;20398;-58
2022/01/20 13:09:41;;;;;;;6.07;2.67;;;4.40;99.90;;;;;;5033395;28;20454;-58
2022/01/20 13:12:08;;;;;;;9.17;3.53;;;4.10;99.90;;;;;;5033718;28;20414;-58
2022/01/20 13:14:49;;;;;;;2.73;2.40;;;4.30;99.90;;;;;;5021827;28;20414;-58
2022/01/20 13:17:28;;;;;;;4.30;2.70;;;4.10;99.90;;;;;;4993911;28;20810;-58
2022/01/20 13:19:56;;;;;;;6.90;2.80;;;4.20;99.90;;;;;;5026568;28;20772;-58
2022/01/20 13:22:38;;;;;;;3.83;2.40;;;4.10;99.90;;;;;;5033674;28;20757;-59
2022/01/20 13:25:08;;;;;;;5.57;3.63;;;4.00;99.90;;;;;;5033114;28;20878;-59
2022/01/20 13:27:34;;;;;;;10.63;3.73;;;4.30;99.90;;;;;;5033458;28;20497;-57
2022/01/20 13:29:59;;;;;;;5.70;3.00;;;4.40;99.90;;;;;;5033196;28;20918;-57
2022/01/20 13:32:25;;;;;;;4.03;2.70;;;4.40;99.90;;;;;;5033133;28;20417;-58
2022/01/20 13:35:01;;;;;;;7.00;2.80;;;4.30;99.90;;;;;;5032947;28;20508;-58
2022/01/20 13:37:30;;;;;;;3.67;2.30;;;4.40;99.90;;;;;;5032228;28;20159;-55
2022/01/20 13:39:57;;;;;;;5.60;2.97;;;4.30;99.90;;;;;;5013017;28;20471;-59
2022/01/20 13:45:13;;;;;;;7.20;2.83;;;4.50;99.90;;;;;;5013779;28;20396;-58
2022/01/20 13:47:55;;;;;;;3.10;2.37;;;4.50;99.90;;;;;;5013622;28;20525;-57
2022/01/20 13:50:22;;;;;;;5.63;3.00;;;4.40;99.90;;;;;;5050550;23;20493;-60
2022/01/20 13:52:48;;;;;;;5.43;2.90;;;4.30;99.90;;;;;;5032552;28;20823;-61
2022/01/20 13:55:36;;;;;;;9.57;3.67;;;4.40;99.90;;;;;;5014820;28;20779;-61
2022/01/20 13:58:03;;;;;;;4.10;2.70;;;4.40;99.90;;;;;;5032091;28;20390;-61
2022/01/20 14:00:35;;;;;;;6.57;3.87;;;4.30;99.90;;;;;;5032220;28;20532;-60
2022/01/20 14:03:05;;;;;;;5.43;2.83;;;4.40;99.90;;;;;;5032709;28;20782;-60
2022/01/20 14:05:33;;;;;;;9.00;3.90;;;4.40;99.90;;;;;;5032133;28;20399;-59
2022/01/20 14:08:00;;;;;;;6.20;3.43;;;4.40;99.90;;;;;;5032741;28;20398;-57